Time;durP1;ratioP1;P1;durP2;ratioP2;P2;SDS_P1;SDS_P2;PMS_P1;PMS_P2;Temp;Humidity;BMP_temperature;BMP_pressure;BME280_temperature;BME280_humidity;BME280_pressure;Samples;Min_cycle;Max_cycle;Signal;HPM_P1;HPM_P2
2023/03/27 00:00:41;;;;;;;1.80;1.70;;;2.70;99.90;;;;;;5039376;28;20051;-75
2023/03/27 00:03:10;;;;;;;1.70;1.60;;;2.70;99.90;;;;;;5029691;28;20042;-76
2023/03/27 00:05:36;;;;;;;1.80;1.70;;;2.60;99.90;;;;;;5050992;28;20042;-76
2023/03/27 00:08:03;;;;;;;1.80;1.70;;;2.60;99.90;;;;;;5038673;28;20485;-76
2023/03/27 00:10:30;;;;;;;2.00;1.90;;;2.60;99.90;;;;;;5051454;28;20596;-76
2023/03/27 00:12:56;;;;;;;2.00;1.90;;;2.60;99.90;;;;;;5054630;28;20052;-75
2023/03/27 00:15:22;;;;;;;1.83;1.73;;;2.50;99.90;;;;;;5058430;28;20980;-76
2023/03/27 00:17:50;;;;;;;1.80;1.70;;;2.40;99.90;;;;;;5053398;28;20101;-76
2023/03/27 00:20:21;;;;;;;1.80;1.70;;;2.40;99.90;;;;;;5050819;28;20154;-76
2023/03/27 00:22:48;;;;;;;1.80;1.70;;;2.40;99.90;;;;;;5061456;28;20044;-75
2023/03/27 00:25:16;;;;;;;1.80;1.70;;;2.40;99.90;;;;;;5063023;28;20044;-76
2023/03/27 00:27:43;;;;;;;1.90;1.80;;;2.40;99.90;;;;;;5039463;28;20131;-76
2023/03/27 00:30:09;;;;;;;1.80;1.70;;;2.30;99.90;;;;;;5058596;28;20043;-76
2023/03/27 00:32:35;;;;;;;1.90;1.80;;;2.20;99.90;;;;;;5056421;28;20231;-76
2023/03/27 00:35:03;;;;;;;1.90;1.80;;;2.20;99.90;;;;;;5061287;28;20612;-76
2023/03/27 00:37:29;;;;;;;2.00;1.90;;;2.20;99.90;;;;;;5043080;28;20052;-76
2023/03/27 00:39:55;;;;;;;1.80;1.70;;;2.20;99.90;;;;;;5043711;28;20086;-76
2023/03/27 00:42:22;;;;;;;2.00;1.90;;;2.10;99.90;;;;;;5035641;28;20044;-75
2023/03/27 00:44:51;;;;;;;2.00;1.90;;;2.10;99.90;;;;;;5041468;28;20048;-76
2023/03/27 00:47:29;;;;;;;1.90;1.80;;;2.10;99.90;;;;;;5052342;28;20054;-76
2023/03/27 00:49:57;;;;;;;1.90;1.80;;;2.00;99.90;;;;;;5057344;28;20044;-76
2023/03/27 00:52:28;;;;;;;1.80;1.70;;;2.10;99.90;;;;;;5020438;28;20407;-76
2023/03/27 00:54:55;;;;;;;1.90;1.80;;;2.00;99.90;;;;;;5056381;28;20048;-76
2023/03/27 00:57:21;;;;;;;1.90;1.80;;;2.10;99.90;;;;;;5056637;28;20048;-76
2023/03/27 00:59:50;;;;;;;1.85;1.75;;;2.00;99.90;;;;;;5053404;28;20253;-76
2023/03/27 01:02:17;;;;;;;2.03;1.92;;;1.90;99.90;;;;;;5053599;28;20048;-76
2023/03/27 01:04:44;;;;;;;1.90;1.80;;;2.00;99.90;;;;;;5055289;28;20135;-76
2023/03/27 01:07:10;;;;;;;1.90;1.80;;;1.90;99.90;;;;;;5057160;28;20048;-76
2023/03/27 01:09:37;;;;;;;1.98;1.88;;;2.00;99.90;;;;;;5058879;28;20040;-76
2023/03/27 01:12:26;;;;;;;1.80;1.70;;;2.00;99.90;;;;;;5063309;28;20046;-76
2023/03/27 01:15:10;;;;;;;1.85;1.75;;;2.00;99.90;;;;;;5041512;28;20059;-76
2023/03/27 01:18:09;;;;;;;1.73;1.63;;;2.00;99.90;;;;;;5054528;28;20041;-76
2023/03/27 01:20:53;;;;;;;2.00;1.90;;;2.10;99.90;;;;;;5049734;28;20047;-76
2023/03/27 01:23:51;;;;;;;1.80;1.70;;;2.10;99.90;;;;;;5036024;28;20048;-76
2023/03/27 01:26:59;;;;;;;1.75;1.65;;;2.10;99.90;;;;;;5059261;28;20048;-76
2023/03/27 01:29:47;;;;;;;1.90;1.80;;;2.10;99.90;;;;;;5057168;28;20084;-76
2023/03/27 01:32:32;;;;;;;1.98;1.88;;;2.10;99.90;;;;;;5054613;28;20044;-75
2023/03/27 01:35:08;;;;;;;1.80;1.70;;;2.10;99.90;;;;;;5061312;28;20051;-76
2023/03/27 01:38:17;;;;;;;1.90;1.80;;;2.10;99.90;;;;;;5050808;28;20667;-76
2023/03/27 01:40:54;;;;;;;1.80;1.70;;;2.10;99.90;;;;;;4977986;28;20045;-76
2023/03/27 01:43:35;;;;;;;1.90;1.80;;;2.10;99.90;;;;;;4980099;28;20569;-76
2023/03/27 01:46:21;;;;;;;1.90;1.80;;;2.10;99.90;;;;;;5037350;28;20056;-76
2023/03/27 01:49:04;;;;;;;1.90;1.80;;;2.10;99.90;;;;;;5056876;28;20592;-76
2023/03/27 01:51:45;;;;;;;1.80;1.70;;;2.10;99.90;;;;;;5052517;28;20738;-76
2023/03/27 01:54:19;;;;;;;1.70;1.60;;;2.00;99.90;;;;;;5039667;28;20387;-76
2023/03/27 01:56:54;;;;;;;1.80;1.70;;;2.00;99.90;;;;;;5059453;28;20036;-76
2023/03/27 01:59:25;;;;;;;1.80;1.70;;;2.00;99.90;;;;;;5058446;28;20047;-76
2023/03/27 02:02:01;;;;;;;1.70;1.60;;;1.90;99.90;;;;;;5059525;28;20067;-76
2023/03/27 02:04:50;;;;;;;1.80;1.70;;;1.90;99.90;;;;;;5058553;28;20041;-76
2023/03/27 02:07:32;;;;;;;1.80;1.70;;;1.90;99.90;;;;;;5043509;28;20056;-76
2023/03/27 02:10:03;;;;;;;1.90;1.80;;;1.80;99.90;;;;;;5056876;28;20048;-76
2023/03/27 02:12:32;;;;;;;1.70;1.60;;;1.90;99.90;;;;;;5060661;28;20055;-76
2023/03/27 02:15:23;;;;;;;1.90;1.80;;;1.90;99.90;;;;;;5024103;28;20083;-76
2023/03/27 02:17:55;;;;;;;1.80;1.70;;;1.80;99.90;;;;;;5059611;28;20069;-75
2023/03/27 02:20:22;;;;;;;1.90;1.80;;;1.90;99.90;;;;;;5060224;28;20134;-76
2023/03/27 02:22:49;;;;;;;1.98;1.88;;;1.80;99.90;;;;;;5068293;28;20052;-76
2023/03/27 02:25:31;;;;;;;1.70;1.60;;;1.80;99.90;;;;;;5062949;28;20043;-76
2023/03/27 02:28:15;;;;;;;1.90;1.80;;;1.80;99.90;;;;;;5046216;28;20197;-76
2023/03/27 02:30:47;;;;;;;1.80;1.70;;;1.80;99.90;;;;;;5061565;28;20759;-76
2023/03/27 02:33:27;;;;;;;1.88;1.77;;;1.80;99.90;;;;;;5038604;28;20146;-76
2023/03/27 02:36:13;;;;;;;1.90;1.80;;;1.70;99.90;;;;;;5061086;28;20240;-76
2023/03/27 02:38:50;;;;;;;1.90;1.80;;;1.70;99.90;;;;;;5062391;28;20044;-76
2023/03/27 02:41:43;;;;;;;1.90;1.80;;;1.60;99.90;;;;;;5059221;28;20044;-76
2023/03/27 02:44:20;;;;;;;1.90;1.80;;;1.70;99.90;;;;;;5061801;28;20135;-76
2023/03/27 02:46:56;;;;;;;1.80;1.70;;;1.60;99.90;;;;;;5044369;28;20119;-76
2023/03/27 02:49:28;;;;;;;1.70;1.60;;;1.60;99.90;;;;;;5057693;28;20054;-76
2023/03/27 02:52:05;;;;;;;1.70;1.60;;;1.60;99.90;;;;;;5062471;28;20405;-76
2023/03/27 02:54:46;;;;;;;1.80;1.70;;;1.60;99.90;;;;;;5042955;28;20070;-76
2023/03/27 02:57:17;;;;;;;1.77;1.67;;;1.50;99.90;;;;;;5041524;28;20048;-76
2023/03/27 02:59:53;;;;;;;1.80;1.70;;;1.60;99.90;;;;;;5044316;28;20412;-76
2023/03/27 03:02:28;;;;;;;2.00;1.90;;;1.50;99.90;;;;;;5045710;28;20048;-75
2023/03/27 03:05:01;;;;;;;2.00;1.90;;;1.60;99.90;;;;;;5046504;28;20068;-76
2023/03/27 03:07:26;;;;;;;1.90;1.80;;;1.60;99.90;;;;;;5027591;28;20147;-76
2023/03/27 03:09:53;;;;;;;1.88;1.77;;;1.60;99.90;;;;;;5063034;28;20468;-75
2023/03/27 03:12:20;;;;;;;1.80;1.70;;;1.60;99.90;;;;;;5063914;28;20130;-76
2023/03/27 03:14:46;;;;;;;1.80;1.70;;;1.70;99.90;;;;;;5061625;28;20731;-76
2023/03/27 03:17:13;;;;;;;1.90;1.80;;;1.70;99.90;;;;;;5064865;28;20114;-75
2023/03/27 03:19:39;;;;;;;2.00;1.90;;;1.60;99.90;;;;;;5042401;28;20052;-76
2023/03/27 03:22:05;;;;;;;1.92;1.83;;;1.70;99.90;;;;;;5062690;28;20044;-76
2023/03/27 03:24:33;;;;;;;1.95;1.85;;;1.80;99.90;;;;;;5059689;28;20575;-76
2023/03/27 03:26:58;;;;;;;1.80;1.70;;;1.80;99.90;;;;;;5060768;28;20079;-76
2023/03/27 03:29:28;;;;;;;1.73;1.63;;;1.80;99.90;;;;;;5060832;28;20063;-76
2023/03/27 03:31:57;;;;;;;1.80;1.70;;;1.90;99.90;;;;;;5054977;28;20051;-76
2023/03/27 03:34:23;;;;;;;1.92;1.83;;;2.00;99.90;;;;;;5062738;28;20052;-75
2023/03/27 03:36:49;;;;;;;1.80;1.70;;;2.00;99.90;;;;;;5060212;28;20129;-75
2023/03/27 03:39:15;;;;;;;1.80;1.70;;;2.00;99.90;;;;;;5060425;28;20726;-75
2023/03/27 03:41:42;;;;;;;1.75;1.65;;;2.10;99.90;;;;;;5062096;28;20059;-76
2023/03/27 03:44:09;;;;;;;1.70;1.60;;;2.00;99.90;;;;;;5058969;28;20044;-76
2023/03/27 03:46:35;;;;;;;1.65;1.55;;;1.90;99.90;;;;;;5062526;28;20054;-75
2023/03/27 03:49:01;;;;;;;1.60;1.50;;;2.00;99.90;;;;;;5044189;28;20043;-75
2023/03/27 03:51:27;;;;;;;1.70;1.60;;;1.90;99.90;;;;;;5061788;28;20055;-75
2023/03/27 03:53:53;;;;;;;1.90;1.80;;;1.90;99.90;;;;;;5062515;28;20591;-76
2023/03/27 03:56:19;;;;;;;1.60;1.50;;;1.90;99.90;;;;;;5067841;28;20046;-75
2023/03/27 03:58:44;;;;;;;1.70;1.60;;;1.80;99.90;;;;;;5045473;28;20036;-75
2023/03/27 04:01:10;;;;;;;1.80;1.70;;;1.80;99.90;;;;;;5059595;28;20098;-76
2023/03/27 04:03:37;;;;;;;1.60;1.50;;;1.90;99.90;;;;;;5072494;28;20107;-76
2023/03/27 04:06:04;;;;;;;1.80;1.70;;;1.90;99.90;;;;;;5059143;28;20130;-76
2023/03/27 04:08:31;;;;;;;1.80;1.70;;;1.90;99.90;;;;;;5075441;28;21334;-75
2023/03/27 04:10:56;;;;;;;1.63;1.52;;;1.90;99.90;;;;;;5056107;28;20178;-76
2023/03/27 04:13:22;;;;;;;1.80;1.70;;;1.90;99.90;;;;;;5071826;28;20484;-76
2023/03/27 04:15:48;;;;;;;1.70;1.60;;;1.90;99.90;;;;;;5074593;28;20036;-76
2023/03/27 04:18:15;;;;;;;1.70;1.60;;;2.00;99.90;;;;;;5054490;28;20054;-76
2023/03/27 04:20:41;;;;;;;1.80;1.70;;;1.90;99.90;;;;;;5071431;28;20075;-75
2023/03/27 04:23:09;;;;;;;1.70;1.60;;;1.90;99.90;;;;;;5072216;28;20551;-76
2023/03/27 04:25:34;;;;;;;1.80;1.70;;;2.00;99.90;;;;;;5057931;28;20080;-76
2023/03/27 04:28:03;;;;;;;1.70;1.60;;;2.00;99.90;;;;;;5057448;28;20195;-75
2023/03/27 04:30:28;;;;;;;1.80;1.70;;;2.00;99.90;;;;;;5054811;28;20075;-75
2023/03/27 04:32:58;;;;;;;1.70;1.60;;;1.90;99.90;;;;;;5073147;28;20799;-75
2023/03/27 04:35:24;;;;;;;1.80;1.70;;;1.90;99.90;;;;;;5072331;28;20669;-75
2023/03/27 04:37:50;;;;;;;1.83;1.73;;;2.00;99.90;;;;;;5056417;28;20043;-76
2023/03/27 04:40:19;;;;;;;1.60;1.50;;;1.90;99.90;;;;;;5055814;28;20059;-76
2023/03/27 04:42:45;;;;;;;1.80;1.70;;;1.80;99.90;;;;;;5076941;28;20044;-76
2023/03/27 04:45:16;;;;;;;1.70;1.60;;;1.80;99.90;;;;;;5076223;28;20032;-75
2023/03/27 04:47:42;;;;;;;1.70;1.60;;;1.80;99.90;;;;;;5072674;28;20688;-76
2023/03/27 04:50:10;;;;;;;1.60;1.50;;;1.80;99.90;;;;;;5057176;28;20048;-76
2023/03/27 04:52:35;;;;;;;1.60;1.50;;;1.90;99.90;;;;;;5052329;28;20097;-76
2023/03/27 04:55:03;;;;;;;1.80;1.70;;;1.70;99.90;;;;;;5074903;28;20109;-76
2023/03/27 04:57:30;;;;;;;1.70;1.60;;;1.80;99.90;;;;;;5059977;28;20477;-76
2023/03/27 05:00:00;;;;;;;1.80;1.70;;;1.70;99.90;;;;;;5073083;28;20132;-76
2023/03/27 05:02:27;;;;;;;1.70;1.60;;;1.70;99.90;;;;;;5069672;28;20036;-76
2023/03/27 05:05:03;;;;;;;1.70;1.60;;;1.70;99.90;;;;;;5057096;28;20532;-76
2023/03/27 05:07:29;;;;;;;1.77;1.67;;;1.80;99.90;;;;;;5041112;28;20077;-76
2023/03/27 05:09:56;;;;;;;1.80;1.70;;;1.80;99.90;;;;;;5059268;28;20048;-76
2023/03/27 05:12:22;;;;;;;1.80;1.70;;;1.90;99.90;;;;;;5062732;28;20288;-76
2023/03/27 05:14:47;;;;;;;1.80;1.70;;;2.00;99.90;;;;;;5039542;28;20036;-77
2023/03/27 05:17:15;;;;;;;1.73;1.63;;;2.10;99.90;;;;;;5057627;28;20394;-77
2023/03/27 05:19:41;;;;;;;1.73;1.63;;;2.10;99.90;;;;;;5053355;28;20059;-78
2023/03/27 05:22:07;;;;;;;1.70;1.60;;;2.10;99.90;;;;;;5054123;28;20048;-76
2023/03/27 05:24:32;;;;;;;1.70;1.60;;;2.20;99.90;;;;;;5059908;28;20097;-77
2023/03/27 05:26:58;;;;;;;1.50;1.40;;;2.20;99.90;;;;;;5062399;28;20153;-75
2023/03/27 05:29:24;;;;;;;1.70;1.60;;;2.10;99.90;;;;;;5043097;28;20733;-75
2023/03/27 05:31:50;;;;;;;1.60;1.50;;;2.20;99.90;;;;;;5059944;28;20044;-76
2023/03/27 05:34:18;;;;;;;1.60;1.50;;;2.20;99.90;;;;;;5050801;28;20046;-75
2023/03/27 05:36:44;;;;;;;1.60;1.50;;;2.30;99.90;;;;;;5028938;28;20623;-76
2023/03/27 05:39:09;;;;;;;1.50;1.40;;;2.20;99.90;;;;;;5065251;28;20491;-76
2023/03/27 05:41:35;;;;;;;1.70;1.60;;;2.30;99.90;;;;;;5060949;28;20048;-76
2023/03/27 05:44:02;;;;;;;1.50;1.40;;;2.40;99.90;;;;;;5065516;28;20119;-75
2023/03/27 05:46:28;;;;;;;1.60;1.50;;;2.50;99.90;;;;;;5051412;28;20485;-75
2023/03/27 05:48:53;;;;;;;1.30;1.30;;;2.50;99.90;;;;;;5063659;28;20063;-75
2023/03/27 05:51:20;;;;;;;1.60;1.50;;;2.60;99.90;;;;;;5046326;28;20040;-76
2023/03/27 05:53:46;;;;;;;1.40;1.40;;;3.00;99.90;;;;;;5047494;28;20413;-76
2023/03/27 05:56:12;;;;;;;1.20;1.20;;;3.10;99.90;;;;;;5050178;28;20048;-76
2023/03/27 05:58:37;;;;;;;1.42;1.40;;;3.20;99.90;;;;;;5065657;28;20047;-76
2023/03/27 06:01:04;;;;;;;1.30;1.30;;;3.20;99.90;;;;;;5046522;28;20040;-76
2023/03/27 06:03:34;;;;;;;1.30;1.30;;;2.90;99.90;;;;;;5067431;28;20723;-75
2023/03/27 06:06:05;;;;;;;1.30;1.30;;;2.80;99.90;;;;;;5063918;28;20063;-75
2023/03/27 06:08:31;;;;;;;1.20;1.20;;;2.80;99.90;;;;;;5062872;28;20044;-74
2023/03/27 06:10:57;;;;;;;1.30;1.30;;;2.90;99.90;;;;;;5051258;28;20789;-75
2023/03/27 06:13:23;;;;;;;1.20;1.20;;;2.80;99.90;;;;;;5040633;28;20040;-73
2023/03/27 06:15:51;;;;;;;1.20;1.20;;;2.90;99.90;;;;;;5043674;28;20651;-76
2023/03/27 06:18:17;;;;;;;1.20;1.20;;;2.90;99.90;;;;;;5069438;28;20063;-76
2023/03/27 06:20:43;;;;;;;1.20;1.20;;;3.00;99.90;;;;;;5051128;28;20075;-74
2023/03/27 06:23:09;;;;;;;1.27;1.27;;;3.10;99.90;;;;;;5074265;28;20645;-76
2023/03/27 06:25:37;;;;;;;1.20;1.20;;;3.10;99.90;;;;;;5070901;28;20059;-76
2023/03/27 06:28:05;;;;;;;1.20;1.20;;;3.30;99.90;;;;;;5056540;28;20113;-77
2023/03/27 06:30:31;;;;;;;1.20;1.20;;;3.30;99.90;;;;;;5077130;28;20561;-76
2023/03/27 06:32:58;;;;;;;1.27;1.27;;;3.30;99.90;;;;;;5077647;28;20040;-77
2023/03/27 06:35:29;;;;;;;1.10;1.10;;;3.40;99.90;;;;;;5058515;28;20685;-76
2023/03/27 06:37:57;;;;;;;1.00;1.00;;;3.60;99.90;;;;;;5054725;28;20052;-76
2023/03/27 06:40:26;;;;;;;1.10;1.10;;;3.70;99.90;;;;;;5054436;28;20040;-76
2023/03/27 06:43:00;;;;;;;1.00;1.00;;;3.80;99.90;;;;;;5058149;28;20055;-75
2023/03/27 06:45:32;;;;;;;1.00;1.00;;;3.90;99.90;;;;;;5053424;28;20057;-77
2023/03/27 06:48:01;;;;;;;1.00;1.00;;;4.10;99.90;;;;;;5075992;28;20041;-75
2023/03/27 06:50:29;;;;;;;1.00;1.00;;;4.20;99.90;;;;;;5056545;28;20055;-76
2023/03/27 06:52:55;;;;;;;0.90;0.90;;;4.40;99.90;;;;;;5056840;28;20050;-76
2023/03/27 06:55:23;;;;;;;0.90;0.90;;;4.60;99.90;;;;;;5072056;28;20093;-75
2023/03/27 06:57:51;;;;;;;0.90;0.90;;;4.60;99.90;;;;;;5034105;28;20073;-76
2023/03/27 07:00:19;;;;;;;0.90;0.90;;;4.70;99.90;;;;;;5076394;28;20055;-73
2023/03/27 07:02:55;;;;;;;0.80;0.80;;;4.50;99.90;;;;;;5053659;28;20048;-76
2023/03/27 07:05:21;;;;;;;0.90;0.90;;;4.80;99.90;;;;;;5057029;28;20568;-75
2023/03/27 07:07:47;;;;;;;0.90;0.90;;;5.00;99.90;;;;;;5076086;28;20444;-75
2023/03/27 07:10:13;;;;;;;1.00;1.00;;;5.10;99.90;;;;;;5056253;28;20040;-75
2023/03/27 07:12:40;;;;;;;0.90;0.90;;;5.10;99.90;;;;;;5076397;28;20124;-76
2023/03/27 07:15:06;;;;;;;0.80;0.80;;;5.20;99.90;;;;;;5077013;28;20044;-76
2023/03/27 07:17:33;;;;;;;0.93;0.93;;;5.20;99.90;;;;;;5060405;28;20513;-76
2023/03/27 07:19:59;;;;;;;0.80;0.80;;;5.30;99.90;;;;;;5041520;28;20053;-76
2023/03/27 07:22:25;;;;;;;0.80;0.80;;;5.20;99.90;;;;;;5079301;28;20047;-76
2023/03/27 07:24:51;;;;;;;0.90;0.90;;;5.30;99.90;;;;;;5056297;28;20052;-76
2023/03/27 07:27:17;;;;;;;0.90;0.90;;;5.50;99.90;;;;;;5077079;28;20086;-76
2023/03/27 07:29:43;;;;;;;0.90;0.90;;;5.50;99.90;;;;;;5074083;28;20550;-77
2023/03/27 07:32:08;;;;;;;0.80;0.80;;;5.50;99.90;;;;;;5074965;28;20523;-75
2023/03/27 07:34:34;;;;;;;0.80;0.80;;;5.70;99.90;;;;;;5074641;28;20040;-76
2023/03/27 07:37:00;;;;;;;0.80;0.80;;;5.70;99.90;;;;;;5078638;28;20105;-76
2023/03/27 07:39:26;;;;;;;0.82;0.82;;;5.80;99.90;;;;;;5070251;28;20035;-75
2023/03/27 07:41:51;;;;;;;0.82;0.82;;;5.60;99.90;;;;;;5076754;28;20052;-76
2023/03/27 07:44:18;;;;;;;0.80;0.80;;;5.90;99.90;;;;;;5056717;28;20059;-75
2023/03/27 07:46:45;;;;;;;0.80;0.80;;;5.90;99.90;;;;;;5075652;28;20052;-76
2023/03/27 07:49:12;;;;;;;0.90;0.90;;;6.00;99.90;;;;;;5058268;28;20044;-76
2023/03/27 07:51:38;;;;;;;0.95;0.95;;;6.10;99.90;;;;;;5053846;28;20052;-75
2023/03/27 07:54:04;;;;;;;0.90;0.90;;;6.30;99.90;;;;;;5072399;28;20251;-75
2023/03/27 07:56:32;;;;;;;0.90;0.90;;;6.20;99.90;;;;;;5059363;28;20413;-76
2023/03/27 07:58:59;;;;;;;0.90;0.90;;;6.20;99.90;;;;;;5077209;28;20040;-76
2023/03/27 08:01:25;;;;;;;0.90;0.90;;;6.50;99.90;;;;;;5072170;28;20036;-76
2023/03/27 08:03:51;;;;;;;0.90;0.90;;;6.60;99.90;;;;;;5072513;28;20054;-75
2023/03/27 08:06:18;;;;;;;1.00;1.00;;;6.80;99.90;;;;;;5051192;28;20067;-75
2023/03/27 08:08:44;;;;;;;1.00;1.00;;;6.60;99.90;;;;;;5063355;28;20225;-76
2023/03/27 08:11:10;;;;;;;1.00;1.00;;;6.70;99.90;;;;;;5066348;28;20062;-74
2023/03/27 08:13:36;;;;;;;0.90;0.90;;;6.80;99.90;;;;;;5074800;28;20040;-75
2023/03/27 08:16:12;;;;;;;0.90;0.90;;;7.00;99.90;;;;;;5060009;28;20070;-77
2023/03/27 08:18:37;;;;;;;0.90;0.90;;;7.00;99.90;;;;;;5072264;28;20040;-74
2023/03/27 08:21:04;;;;;;;0.88;0.88;;;7.10;99.90;;;;;;5073636;28;20036;-75
2023/03/27 08:23:32;;;;;;;0.90;0.90;;;7.20;99.90;;;;;;5076189;28;20043;-75
2023/03/27 08:26:02;;;;;;;0.80;0.80;;;7.20;99.90;;;;;;5076778;28;20048;-76
2023/03/27 08:28:33;;;;;;;0.90;0.90;;;7.30;99.90;;;;;;5054939;28;20456;-75
2023/03/27 08:31:04;;;;;;;0.90;0.90;;;7.40;99.90;;;;;;5047141;28;20136;-75
2023/03/27 08:33:30;;;;;;;0.90;0.90;;;7.70;99.90;;;;;;5054400;28;20153;-76
2023/03/27 08:35:56;;;;;;;0.88;0.88;;;7.80;99.90;;;;;;5057763;28;20545;-76
2023/03/27 08:38:22;;;;;;;0.90;0.90;;;8.10;99.90;;;;;;5073757;28;20040;-75
2023/03/27 08:40:57;;;;;;;0.80;0.80;;;8.10;99.90;;;;;;5051811;28;20043;-75
2023/03/27 08:43:44;;;;;;;0.90;0.90;;;8.30;99.90;;;;;;5053894;28;20040;-76
2023/03/27 08:46:12;;;;;;;1.08;1.08;;;7.20;99.90;;;;;;5057611;28;20052;-76
2023/03/27 08:48:52;;;;;;;1.08;1.08;;;6.70;99.90;;;;;;5076238;28;20093;-75
2023/03/27 08:51:41;;;;;;;1.00;1.00;;;5.70;99.90;;;;;;5076293;28;20068;-75
2023/03/27 08:54:15;;;;;;;1.10;1.10;;;4.80;99.90;;;;;;5074959;28;20050;-75
2023/03/27 08:56:41;;;;;;;;;;;4.40;99.90;;;;;;5058498;28;20688;-75
2023/03/27 08:59:15;;;;;;;1.20;1.20;;;4.30;99.90;;;;;;5078021;28;19920;-76
2023/03/27 09:01:50;;;;;;;1.10;1.10;;;4.10;99.90;;;;;;5074826;28;20119;-76
2023/03/27 09:04:19;;;;;;;1.10;1.10;;;3.90;99.90;;;;;;5074022;28;20082;-75
2023/03/27 09:06:50;;;;;;;1.00;1.00;;;4.00;99.90;;;;;;5077731;28;20064;-76
2023/03/27 09:09:37;;;;;;;1.00;1.00;;;4.70;99.90;;;;;;5077228;28;20044;-75
2023/03/27 09:12:17;;;;;;;1.00;1.00;;;4.90;99.90;;;;;;5080697;28;20044;-76
2023/03/27 09:14:47;;;;;;;1.00;1.00;;;5.50;99.90;;;;;;5078098;28;20105;-76
2023/03/27 09:17:20;;;;;;;1.00;1.00;;;5.70;99.90;;;;;;5077313;28;20048;-75
2023/03/27 09:20:07;;;;;;;1.00;1.00;;;6.10;99.90;;;;;;5074685;28;20047;-76
2023/03/27 09:22:42;;;;;;;0.90;0.90;;;6.30;99.90;;;;;;5081467;28;20105;-75
2023/03/27 09:25:34;;;;;;;1.00;1.00;;;6.80;99.90;;;;;;5076524;28;20875;-75
2023/03/27 09:28:02;;;;;;;1.00;1.00;;;6.90;99.90;;;;;;5078301;28;20040;-76
2023/03/27 09:30:30;;;;;;;0.90;0.90;;;7.30;99.90;;;;;;5073145;28;20072;-75
2023/03/27 09:33:04;;;;;;;0.90;0.90;;;7.10;99.90;;;;;;5050940;28;20036;-75
2023/03/27 09:35:31;;;;;;;0.90;0.90;;;7.40;99.90;;;;;;5070824;28;20541;-74
2023/03/27 09:38:05;;;;;;;0.90;0.90;;;7.40;99.90;;;;;;5067893;28;20071;-76
2023/03/27 09:40:48;;;;;;;0.90;0.90;;;7.60;99.90;;;;;;5072989;28;20044;-76
2023/03/27 09:43:18;;;;;;;0.90;0.90;;;7.50;99.90;;;;;;5079930;28;20036;-75
2023/03/27 09:45:46;;;;;;;0.90;0.90;;;7.70;99.90;;;;;;5079970;28;20505;-76
2023/03/27 09:48:38;;;;;;;0.80;0.80;;;8.10;99.90;;;;;;5077333;28;20063;-76
2023/03/27 09:51:04;;;;;;;0.90;0.90;;;8.20;99.90;;;;;;5062843;28;20051;-76
2023/03/27 09:53:31;;;;;;;0.80;0.80;;;7.90;99.90;;;;;;5053953;28;20059;-76
2023/03/27 09:55:58;;;;;;;0.82;0.82;;;7.90;99.90;;;;;;5070720;28;20066;-75
2023/03/27 09:58:31;;;;;;;0.90;0.90;;;7.90;99.90;;;;;;5066129;28;20044;-76
2023/03/27 10:01:14;;;;;;;0.93;0.93;;;7.30;99.90;;;;;;5046013;28;20130;-76
2023/03/27 10:03:40;;;;;;;1.00;1.00;;;6.30;99.90;;;;;;5072506;28;20063;-76
2023/03/27 10:06:13;;;;;;;0.95;0.95;;;6.00;99.90;;;;;;5068441;28;20094;-75
2023/03/27 10:08:43;;;;;;;0.97;0.97;;;6.40;99.90;;;;;;5069928;28;20429;-73
2023/03/27 10:11:15;;;;;;;0.85;0.85;;;6.60;99.90;;;;;;5057848;28;20054;-76
2023/03/27 10:13:46;;;;;;;0.90;0.90;;;7.10;99.90;;;;;;5075768;28;20057;-75
2023/03/27 10:16:16;;;;;;;0.90;0.90;;;7.20;99.90;;;;;;5058213;28;20145;-75
2023/03/27 10:18:46;;;;;;;0.90;0.90;;;7.40;99.90;;;;;;5059553;28;20409;-75
2023/03/27 10:21:28;;;;;;;0.80;0.80;;;7.60;99.90;;;;;;5057127;28;20048;-76
2023/03/27 10:24:40;;;;;;;0.82;0.82;;;7.70;99.90;;;;;;5057637;28;20125;-75
2023/03/27 10:27:09;;;;;;;0.90;0.90;;;7.60;99.90;;;;;;5015151;28;20057;-75
2023/03/27 10:29:36;;;;;;;0.80;0.80;;;7.70;99.90;;;;;;5045430;28;20064;-75
2023/03/27 10:32:04;;;;;;;0.90;0.90;;;7.90;99.90;;;;;;5076686;28;20075;-75
2023/03/27 10:34:38;;;;;;;0.80;0.80;;;8.30;99.90;;;;;;5079116;28;20047;-76
2023/03/27 10:37:26;;;;;;;0.82;0.82;;;8.10;99.90;;;;;;5073759;28;20527;-75
2023/03/27 10:39:56;;;;;;;0.90;0.90;;;8.30;99.90;;;;;;5061075;28;20095;-75
2023/03/27 10:42:25;;;;;;;0.80;0.80;;;8.40;99.90;;;;;;5071493;28;20040;-76
2023/03/27 10:44:55;;;;;;;0.82;0.82;;;8.40;99.90;;;;;;5078158;28;20052;-76
2023/03/27 10:47:26;;;;;;;0.80;0.80;;;8.40;99.90;;;;;;5080814;28;20067;-75
2023/03/27 10:50:42;;;;;;;0.80;0.80;;;8.60;99.90;;;;;;5075875;28;20245;-76
2023/03/27 10:53:15;;;;;;;0.90;0.90;;;8.40;99.90;;;;;;5030193;28;20421;-76
2023/03/27 10:55:47;;;;;;;0.80;0.80;;;8.90;99.90;;;;;;5059493;28;20486;-75
2023/03/27 10:58:31;;;;;;;0.80;0.80;;;8.80;99.90;;;;;;5075396;28;20063;-75
2023/03/27 11:01:13;;;;;;;0.80;0.80;;;8.60;99.90;;;;;;5074936;28;20118;-76
2023/03/27 11:03:58;;;;;;;0.90;0.90;;;8.10;99.90;;;;;;5073747;28;20070;-75
2023/03/27 11:06:30;;;;;;;0.90;0.90;;;7.80;99.90;;;;;;5072709;28;20241;-75
2023/03/27 11:09:04;;;;;;;0.80;0.80;;;8.30;99.90;;;;;;5071564;28;22095;-76
2023/03/27 11:11:36;;;;;;;0.85;0.85;;;8.90;99.90;;;;;;5057057;28;20058;-75
2023/03/27 11:14:08;;;;;;;0.80;0.80;;;8.60;99.90;;;;;;5077324;28;20409;-75
2023/03/27 11:16:43;;;;;;;0.85;0.85;;;8.10;99.90;;;;;;5078155;28;20040;-75
2023/03/27 11:19:08;;;;;;;0.90;0.90;;;7.40;99.90;;;;;;5059156;28;20040;-75
2023/03/27 11:21:41;;;;;;;0.95;0.95;;;7.10;99.90;;;;;;5076276;28;20051;-76
2023/03/27 11:24:28;;;;;;;0.90;0.90;;;6.90;99.90;;;;;;5074581;28;20047;-75
2023/03/27 11:27:15;;;;;;;0.90;0.90;;;7.60;99.90;;;;;;5058811;28;20048;-76
2023/03/27 11:29:48;;;;;;;0.90;0.90;;;7.80;99.90;;;;;;5073320;28;20509;-76
2023/03/27 11:32:27;;;;;;;0.82;0.82;;;8.10;99.90;;;;;;5057325;28;20044;-75
2023/03/27 11:35:10;;;;;;;0.80;0.80;;;8.50;99.90;;;;;;5075881;28;20040;-76
2023/03/27 11:37:36;;;;;;;0.80;0.80;;;8.80;99.90;;;;;;5058848;28;20052;-76
2023/03/27 11:40:16;;;;;;;0.80;0.80;;;9.30;99.90;;;;;;5075543;28;20250;-76
2023/03/27 11:42:44;;;;;;;0.82;0.82;;;8.90;99.90;;;;;;5078337;28;20427;-75
2023/03/27 11:45:21;;;;;;;0.80;0.80;;;8.20;99.90;;;;;;5059248;28;20052;-75
2023/03/27 11:48:13;;;;;;;0.80;0.80;;;8.10;99.90;;;;;;5073591;28;20048;-75
2023/03/27 11:50:51;;;;;;;0.90;0.90;;;8.70;99.90;;;;;;5058260;28;20032;-75
2023/03/27 11:53:48;;;;;;;0.88;0.88;;;8.80;99.90;;;;;;5058879;28;20047;-75
2023/03/27 11:56:36;;;;;;;0.80;0.80;;;9.00;99.90;;;;;;5055797;28;20040;-75
2023/03/27 11:59:17;;;;;;;0.80;0.80;;;9.00;99.90;;;;;;5054774;28;21669;-75
2023/03/27 12:01:57;;;;;;;0.80;0.80;;;9.30;99.90;;;;;;5041076;28;20051;-75
2023/03/27 12:04:47;;;;;;;0.90;0.90;;;7.80;99.90;;;;;;5073162;28;20063;-75
2023/03/27 12:07:31;;;;;;;0.80;0.80;;;7.60;99.90;;;;;;5069706;28;20047;-75
2023/03/27 12:10:16;;;;;;;0.90;0.90;;;8.40;99.90;;;;;;5074826;28;20048;-75
2023/03/27 12:13:05;;;;;;;0.90;0.90;;;8.70;99.90;;;;;;5052614;28;20139;-75
2023/03/27 12:16:26;;;;;;;0.80;0.80;;;8.60;99.90;;;;;;5067554;28;20032;-75
2023/03/27 12:19:12;;;;;;;0.80;0.80;;;9.90;99.90;;;;;;5023762;28;20064;-74
2023/03/27 12:22:13;;;;;;;0.80;0.80;;;9.20;99.90;;;;;;5057792;28;20055;-75
2023/03/27 12:24:54;;;;;;;0.90;0.90;;;7.90;99.90;;;;;;5042378;28;20397;-75
2023/03/27 12:27:46;;;;;;;0.90;0.90;;;7.10;99.90;;;;;;5061203;28;20048;-75
2023/03/27 12:30:41;;;;;;;1.00;1.00;;;7.00;99.90;;;;;;5063356;28;20117;-75
2023/03/27 12:33:48;;;;;;;0.90;0.90;;;7.10;99.90;;;;;;5045918;28;20048;-74
2023/03/27 12:36:18;;;;;;;0.98;0.98;;;7.70;99.90;;;;;;4985678;28;20059;-75
2023/03/27 12:38:44;;;;;;;0.90;0.90;;;8.40;99.90;;;;;;5002783;28;20171;-76
2023/03/27 12:41:29;;;;;;;0.90;0.90;;;8.80;99.90;;;;;;5038634;28;20048;-75
2023/03/27 12:44:00;;;;;;;0.90;0.90;;;9.10;99.90;;;;;;5054926;28;20109;-76
2023/03/27 12:46:27;;;;;;;0.90;0.90;;;9.10;99.90;;;;;;5078783;28;20119;-75
2023/03/27 12:49:00;;;;;;;0.82;0.82;;;9.50;99.90;;;;;;5078701;28;20135;-76
2023/03/27 12:51:46;;;;;;;0.90;0.90;;;9.90;99.90;;;;;;5073859;28;20055;-75
2023/03/27 12:54:22;;;;;;;0.90;0.90;;;9.40;99.90;;;;;;5053408;28;20078;-74
2023/03/27 12:57:06;;;;;;;0.90;0.90;;;7.70;99.90;;;;;;5076520;28;20075;-75
2023/03/27 12:59:47;;;;;;;0.98;0.98;;;6.90;99.90;;;;;;5059983;28;20081;-75
2023/03/27 13:02:34;;;;;;;0.95;0.95;;;6.00;99.90;;;;;;5055388;28;20048;-75
2023/03/27 13:05:15;;;;;;;1.00;1.00;;;5.70;99.90;;;;;;5075664;28;20047;-74
2023/03/27 13:08:01;;;;;;;1.00;1.00;;;5.80;99.90;;;;;;5073796;28;20036;-75
2023/03/27 14:02:25;;;;;;;1.48;1.40;;;9.40;99.90;;;;;;5091631;27;20976;-76
2023/03/27 14:05:03;;;;;;;1.10;1.10;;;9.10;99.90;;;;;;5089675;28;20040;-75
2023/03/27 14:07:29;;;;;;;1.00;1.00;;;8.40;99.90;;;;;;5097334;28;20122;-76
2023/03/27 14:10:05;;;;;;;1.20;1.20;;;7.70;99.90;;;;;;5095735;28;20135;-76
2023/03/27 14:13:12;;;;;;;1.20;1.20;;;7.40;99.90;;;;;;5094842;28;20050;-76
2023/03/27 14:15:59;;;;;;;1.10;1.10;;;7.10;99.90;;;;;;5093159;28;20040;-77
2023/03/27 14:19:15;;;;;;;1.17;1.17;;;7.10;99.90;;;;;;5093568;28;20083;-76